Time;durP1;ratioP1;P1;durP2;ratioP2;P2;SDS_P1;SDS_P2;PMS_P1;PMS_P2;Temp;Humidity;BMP_temperature;BMP_pressure;BME280_temperature;BME280_humidity;BME280_pressure;Samples;Min_cycle;Max_cycle;Signal;HPM_P1;HPM_P2
2022/12/12 00:02:19;;;;;;;;;;;-0.60;99.90;;;;;;5048530;28;19952;-77
2022/12/12 00:04:44;;;;;;;;;;;-0.60;99.90;;;;;;5049549;28;19931;-78
2022/12/12 00:07:10;;;;;;;;;;;-0.60;99.90;;;;;;5033377;28;19972;-77
2022/12/12 00:09:35;;;;;;;;;;;-0.60;99.90;;;;;;5048815;28;20038;-77
2022/12/12 00:12:01;;;;;;;;;;;-0.60;99.90;;;;;;5049274;28;19932;-77
2022/12/12 00:14:26;;;;;;;;;;;-0.60;99.90;;;;;;5030950;28;19925;-77
2022/12/12 00:16:52;;;;;;;;;;;-0.50;99.90;;;;;;5033347;28;19972;-78
2022/12/12 00:19:17;;;;;;;;;;;-0.50;99.90;;;;;;5048845;28;19960;-79
2022/12/12 00:21:43;;;;;;;;;;;-0.50;99.90;;;;;;5032592;28;20330;-77
2022/12/12 00:24:09;;;;;;;;;;;-0.50;99.90;;;;;;5036468;28;19995;-78
2022/12/12 00:26:34;;;;;;;;;;;-0.50;99.90;;;;;;5060310;28;20043;-78
2022/12/12 00:29:01;;;;;;;;;;;-0.50;99.90;;;;;;5084053;28;19987;-77
2022/12/12 00:31:28;;;;;;;;;;;0.30;99.90;;;;;;5053156;28;19925;-78
2022/12/12 00:33:53;;;;;;;;;;;-0.50;99.90;;;;;;5052299;28;19994;-77
2022/12/12 00:36:20;;;;;;;;;;;-0.50;99.90;;;;;;5042087;28;20438;-78
2022/12/12 00:38:46;;;;;;;;;;;-0.50;99.90;;;;;;5048370;28;20387;-77
2022/12/12 00:41:11;;;;;;;;;;;-0.50;99.90;;;;;;5053915;28;19964;-78
2022/12/12 00:43:37;;;;;;;;;;;-0.50;99.90;;;;;;5051920;28;19925;-78
2022/12/12 00:46:03;;;;;;;;;;;-0.50;99.90;;;;;;5053504;28;20378;-77
2022/12/12 00:48:29;;;;;;;;;;;-0.50;99.90;;;;;;5035531;28;19932;-78
2022/12/12 00:50:55;;;;;;;;;;;-0.50;99.90;;;;;;5052948;28;19971;-79
2022/12/12 00:53:21;;;;;;;;;;;-0.50;99.90;;;;;;5034429;28;19980;-77
2022/12/12 00:55:53;;;;;;;;;;;-0.50;99.90;;;;;;5052761;28;20489;-78
2022/12/12 00:58:19;;;;;;;;;;;-0.50;99.90;;;;;;5037237;28;20264;-77
2022/12/12 01:00:44;;;;;;;;;;;-0.50;99.90;;;;;;5052423;28;19932;-77
2022/12/12 01:03:10;;;;;;;;;;;-0.50;99.90;;;;;;5051031;28;19933;-77
2022/12/12 01:05:35;;;;;;;;;;;-0.50;99.90;;;;;;5068672;28;20156;-78
2022/12/12 01:08:01;;;;;;;;;;;-0.50;99.90;;;;;;5035920;28;20415;-78
2022/12/12 01:10:27;;;;;;;;;;;-0.50;99.90;;;;;;5053188;28;20486;-78
2022/12/12 01:12:52;;;;;;;;;;;-0.50;99.90;;;;;;5051900;28;19925;-77
2022/12/12 01:15:18;;;;;;;;;;;-0.50;99.90;;;;;;5052002;28;20047;-78
2022/12/12 01:17:43;;;;;;;;;;;-0.50;99.90;;;;;;5036466;28;19964;-77
2022/12/12 01:20:17;;;;;;;;;;;-0.50;99.90;;;;;;5034565;28;20367;-78
2022/12/12 01:22:42;;;;;;;;;;;-0.50;99.90;;;;;;5051631;28;20336;-78
2022/12/12 01:25:09;;;;;;;;;;;-0.50;99.90;;;;;;5052390;28;20000;-78
2022/12/12 01:27:34;;;;;;;;;;;-0.50;99.90;;;;;;5035410;28;20331;-77
2022/12/12 01:30:01;;;;;;;;;;;-0.50;99.90;;;;;;5051328;28;19933;-77
2022/12/12 01:32:27;;;;;;;;;;;-0.50;99.90;;;;;;5051367;28;20382;-79
2022/12/12 01:34:53;;;;;;;;;;;-0.40;99.90;;;;;;5034455;28;19990;-80
2022/12/12 01:37:18;;;;;;;;;;;-0.50;99.90;;;;;;5036432;28;20396;-78
2022/12/12 01:39:44;;;;;;;;;;;-0.50;99.90;;;;;;5051789;28;19932;-78
2022/12/12 01:42:14;;;;;;;;;;;-0.50;99.90;;;;;;5051765;28;20138;-78
2022/12/12 01:44:46;;;;;;;;;;;-0.50;99.90;;;;;;5051910;28;20426;-77
2022/12/12 01:47:13;;;;;;;;;;;-0.50;99.90;;;;;;5035895;28;20402;-77
2022/12/12 01:49:39;;;;;;;;;;;-0.50;99.90;;;;;;5051289;28;20019;-80
2022/12/12 01:52:09;;;;;;;;;;;-0.50;99.90;;;;;;5050446;28;19925;-81
2022/12/12 01:54:39;;;;;;;;;;;-0.50;99.90;;;;;;5051603;28;20082;-77
2022/12/12 01:57:07;;;;;;;;;;;-0.50;99.90;;;;;;5036306;28;19925;-77
2022/12/12 01:59:33;;;;;;;;;;;-0.50;99.90;;;;;;5051276;28;20391;-78
2022/12/12 02:01:59;;;;;;;;;;;-0.50;99.90;;;;;;5052094;28;19924;-78
2022/12/12 02:04:26;;;;;;;;;;;-0.50;99.90;;;;;;5050183;28;19932;-77
2022/12/12 02:06:53;;;;;;;;;;;-0.50;99.90;;;;;;5036669;28;19924;-78
2022/12/12 02:09:20;;;;;;;;;;;-0.60;99.90;;;;;;5050577;28;19929;-78
2022/12/12 02:11:47;;;;;;;;;;;-0.60;99.90;;;;;;5051698;28;19932;-77
2022/12/12 02:14:24;;;;;;;;;;;-0.60;99.90;;;;;;5050916;28;19932;-77
2022/12/12 02:16:55;;;;;;;;;;;-0.60;99.90;;;;;;5035888;28;20417;-78
2022/12/12 02:19:46;;;;;;;;;;;-0.60;99.90;;;;;;5050445;28;19935;-77
2022/12/12 02:22:34;;;;;;;;;;;-0.60;99.90;;;;;;5043979;28;19949;-77
2022/12/12 02:25:02;;;;;;;;;;;-0.60;99.90;;;;;;5035163;28;19968;-78
2022/12/12 02:27:46;;;;;;;;;;;-0.60;99.90;;;;;;5015515;28;20402;-78
2022/12/12 02:30:22;;;;;;;;;;;-0.60;99.90;;;;;;5042087;28;19932;-77
2022/12/12 02:32:52;;;;;;;;;;;-0.60;99.90;;;;;;5050883;28;19932;-79
2022/12/12 02:35:17;;;;;;;;;;;-0.60;99.90;;;;;;5051045;28;19956;-77
2022/12/12 02:37:43;;;;;;;;;;;-0.60;99.90;;;;;;5034484;28;20445;-78
2022/12/12 02:40:27;;;;;;;;;;;-0.60;99.90;;;;;;5050450;28;20645;-79
2022/12/12 02:43:08;;;;;;;;;;;-0.60;99.90;;;;;;5031670;28;19924;-78
2022/12/12 02:45:44;;;;;;;;;;;-0.60;99.90;;;;;;5051189;28;19932;-78
2022/12/12 02:48:22;;;;;;;;;;;-0.60;99.90;;;;;;5033290;28;20141;-78
2022/12/12 02:50:49;;;;;;;;;;;-0.60;99.90;;;;;;5050573;28;20027;-79
2022/12/12 02:53:18;;;;;;;;;;;-0.60;99.90;;;;;;5049970;28;19933;-79
2022/12/12 02:55:44;;;;;;;;;;;-0.60;99.90;;;;;;5050306;28;20239;-79
2022/12/12 02:58:10;;;;;;;;;;;0.00;99.90;;;;;;5034613;28;19929;-78
2022/12/12 03:00:43;;;;;;;;;;;-0.60;99.90;;;;;;5050578;28;19924;-77
2022/12/12 03:08:52;;;;;;;;;;;-0.60;99.90;;;;;;5045013;28;19935;-77
2022/12/12 03:11:24;;;;;;;;;;;-0.60;99.90;;;;;;5031668;28;20299;-78
2022/12/12 03:13:58;;;;;;;;;;;-0.60;99.90;;;;;;5011391;28;20469;-80
2022/12/12 03:16:26;;;;;;;;;;;-0.60;99.90;;;;;;5017704;28;20394;-77
2022/12/12 03:18:55;;;;;;;;;;;-0.60;99.90;;;;;;5026488;28;19925;-77
2022/12/12 03:21:33;;;;;;;;;;;-0.60;99.90;;;;;;5049656;28;19929;-77
2022/12/12 03:24:01;;;;;;;;;;;-0.60;99.90;;;;;;5037667;28;19967;-80
2022/12/12 03:26:45;;;;;;;;;;;-0.60;99.90;;;;;;5038141;28;19952;-78
2022/12/12 03:29:16;;;;;;;;;;;-0.60;99.90;;;;;;5049356;28;19947;-77
2022/12/12 03:31:45;;;;;;;;;;;-0.60;99.90;;;;;;5033663;28;19925;-78
2022/12/12 03:34:14;;;;;;;;;;;-0.60;99.90;;;;;;5029396;28;20299;-78
2022/12/12 03:36:43;;;;;;;;;;;-0.60;99.90;;;;;;5015916;28;20501;-79
2022/12/12 03:39:14;;;;;;;;;;;-0.60;99.90;;;;;;5029997;28;20291;-77
2022/12/12 03:41:42;;;;;;;;;;;-0.60;99.90;;;;;;5030185;28;19976;-78
2022/12/12 03:44:16;;;;;;;;;;;-0.60;99.90;;;;;;5028850;28;20016;-78
2022/12/12 03:46:50;;;;;;;;;;;-0.70;99.90;;;;;;5014963;28;20425;-78
2022/12/12 03:49:22;;;;;;;;;;;-0.60;99.90;;;;;;5029141;28;20016;-78
2022/12/12 03:51:57;;;;;;;;;;;-0.70;99.90;;;;;;5029781;28;19929;-77
2022/12/12 03:54:25;;;;;;;;;;;-0.60;99.90;;;;;;5028498;28;20372;-77
2022/12/12 03:56:50;;;;;;;;;;;-0.70;99.90;;;;;;4996402;28;19936;-77
2022/12/12 03:59:19;;;;;;;;;;;-0.70;99.90;;;;;;5029166;28;19925;-77
2022/12/12 04:01:51;;;;;;;;;;;-0.70;99.90;;;;;;5029915;28;19925;-78
2022/12/12 04:04:39;;;;;;;;;;;-0.70;99.90;;;;;;4991448;28;20008;-77
2022/12/12 04:07:26;;;;;;;;;;;-0.70;99.90;;;;;;4994461;28;20415;-78
2022/12/12 04:12:58;;;;;;;;;;;-0.70;99.90;;;;;;5028703;28;19933;-77
2022/12/12 04:15:46;;;;;;;;;;;-0.70;99.90;;;;;;5029056;28;19995;-77
2022/12/12 04:18:30;;;;;;;;;;;-0.70;99.90;;;;;;5013901;28;19971;-78
2022/12/12 04:23:52;;;;;;;;;;;-0.70;99.90;;;;;;5038199;28;20379;-77
2022/12/12 04:26:38;;;;;;;;;;;-0.70;99.90;;;;;;5036288;28;20012;-77
2022/12/12 04:29:22;;;;;;;;;;;-0.70;99.90;;;;;;5044695;28;19925;-78
2022/12/12 04:31:51;;;;;;;;;;;-0.70;99.90;;;;;;5028904;28;19931;-77
2022/12/12 04:34:23;;;;;;;;;;;-0.70;99.90;;;;;;5028788;28;20161;-79
2022/12/12 04:36:49;;;;;;;;;;;-0.70;99.90;;;;;;5014146;28;19984;-77
2022/12/12 04:39:15;;;;;;;;;;;-0.70;99.90;;;;;;5029361;28;19925;-78
2022/12/12 04:41:43;;;;;;;;;;;-0.70;99.90;;;;;;5028817;28;19926;-77
2022/12/12 04:44:10;;;;;;;;;;;-0.70;99.90;;;;;;5028268;28;20019;-77
2022/12/12 04:46:37;;;;;;;;;;;-0.70;99.90;;;;;;5025157;28;20334;-77
2022/12/12 04:49:05;;;;;;;;;;;-0.70;99.90;;;;;;5047024;28;19924;-77
2022/12/12 04:51:38;;;;;;;;;;;-0.60;99.90;;;;;;5049271;28;19935;-77
2022/12/12 04:54:07;;;;;;;;;;;-0.70;99.90;;;;;;5030952;28;20399;-77
2022/12/12 04:56:35;;;;;;;;;;;-0.70;99.90;;;;;;5034649;28;19935;-78
2022/12/12 04:59:01;;;;;;;;;;;-0.70;99.90;;;;;;5028776;28;19932;-82
2022/12/12 05:01:42;;;;;;;;;;;-0.80;99.90;;;;;;5049504;28;19925;-77
2022/12/12 05:04:13;;;;;;;;;;;-0.80;99.90;;;;;;5044631;28;19976;-78
2022/12/12 05:06:44;;;;;;;;;;;-0.70;99.90;;;;;;5017674;28;19932;-77
2022/12/12 05:09:10;;;;;;;;;;;-0.70;99.90;;;;;;5030494;28;20015;-78
2022/12/12 05:11:36;;;;;;;;;;;-0.70;99.90;;;;;;5049545;28;20075;-78
2022/12/12 05:14:02;;;;;;;;;;;-0.70;99.90;;;;;;5051186;28;20303;-78
2022/12/12 05:16:33;;;;;;;;;;;-0.70;99.90;;;;;;5057341;28;20349;-77
2022/12/12 05:18:58;;;;;;;;;;;-0.70;99.90;;;;;;5027996;28;19979;-80
2022/12/12 05:21:24;;;;;;;;;;;-0.40;99.90;;;;;;5032393;28;19933;-78
2022/12/12 05:23:50;;;;;;;;;;;-0.70;99.90;;;;;;5051530;28;19981;-78
2022/12/12 05:26:23;;;;;;;;;;;-0.80;99.90;;;;;;5059961;28;19928;-82
2022/12/12 05:28:49;;;;;;;;;;;-0.80;99.90;;;;;;5068126;28;20435;-77
2022/12/12 05:31:15;;;;;;;;;;;-0.80;99.90;;;;;;5051272;28;20172;-78
2022/12/12 05:33:40;;;;;;;;;;;-0.80;99.90;;;;;;5051661;28;19924;-80
2022/12/12 05:36:06;;;;;;;;;;;-0.80;99.90;;;;;;5049184;28;19947;-81
2022/12/12 05:38:32;;;;;;;;;;;-0.90;99.90;;;;;;5041318;28;19925;-78
2022/12/12 05:40:58;;;;;;;;;;;-0.40;99.90;;;;;;5052028;28;19968;-78
2022/12/12 05:43:23;;;;;;;;;;;-0.80;99.90;;;;;;5051195;28;19978;-78
2022/12/12 05:45:49;;;;;;;;;;;-0.90;99.90;;;;;;5051881;28;19940;-77
2022/12/12 05:48:14;;;;;;;;;;;-0.90;99.90;;;;;;5035585;28;20326;-78
2022/12/12 05:50:40;;;;;;;;;;;-0.90;99.90;;;;;;5051939;28;19936;-77
2022/12/12 05:53:05;;;;;;;;;;;-0.90;99.90;;;;;;5051515;28;20416;-77
2022/12/12 05:55:31;;;;;;;;;;;-0.90;99.90;;;;;;5051556;28;20451;-81
2022/12/12 05:57:57;;;;;;;;;;;-0.90;99.90;;;;;;5035203;28;19932;-78
2022/12/12 06:00:22;;;;;;;;;;;-0.90;99.90;;;;;;5051368;28;19936;-78
2022/12/12 06:02:48;;;;;;;;;;;-0.90;99.90;;;;;;5051228;28;19929;-77
2022/12/12 06:05:14;;;;;;;;;;;-0.90;99.90;;;;;;5065792;28;20053;-77
2022/12/12 06:07:39;;;;;;;;;;;-0.90;99.90;;;;;;5035582;28;19928;-77
2022/12/12 06:10:05;;;;;;;;;;;-0.90;99.90;;;;;;5051382;28;19932;-78
2022/12/12 06:12:31;;;;;;;;;;;-0.90;99.90;;;;;;5050732;28;20026;-78
2022/12/12 06:14:56;;;;;;;;;;;-0.90;99.90;;;;;;5040526;28;20218;-77
2022/12/12 06:17:22;;;;;;;;;;;-0.90;99.90;;;;;;5030582;28;19932;-79
2022/12/12 06:19:47;;;;;;;;;;;-0.90;99.90;;;;;;5032324;28;19999;-80
2022/12/12 06:22:13;;;;;;;;;;;-0.90;99.90;;;;;;5042865;28;19987;-77
2022/12/12 06:24:38;;;;;;;;;;;-1.00;99.90;;;;;;5056140;28;19929;-76
2022/12/12 06:27:04;;;;;;;;;;;-0.90;99.90;;;;;;5038269;28;19925;-76
2022/12/12 06:29:30;;;;;;;;;;;-0.90;99.90;;;;;;5050897;28;19929;-79
2022/12/12 06:31:55;;;;;;;;;;;-0.10;99.90;;;;;;5050003;28;19931;-76
2022/12/12 06:34:21;;;;;;;;;;;-0.90;99.90;;;;;;5050270;28;19955;-77
2022/12/12 06:36:46;;;;;;;;;;;-0.90;99.90;;;;;;5035378;28;19971;-77
2022/12/12 06:39:12;;;;;;;;;;;-0.90;99.90;;;;;;5050851;28;19924;-78
2022/12/12 06:41:38;;;;;;;;;;;-0.90;99.90;;;;;;5041253;28;20316;-76
2022/12/12 06:44:04;;;;;;;;;;;-0.90;99.90;;;;;;5046940;28;19925;-78
2022/12/12 06:46:30;;;;;;;;;;;-0.90;99.90;;;;;;5020424;28;19954;-76
2022/12/12 06:48:56;;;;;;;;;;;-0.20;99.90;;;;;;5048665;28;19929;-77
2022/12/12 06:51:23;;;;;;;;;;;-0.90;99.90;;;;;;5032699;28;20283;-76
2022/12/12 06:53:49;;;;;;;;;;;-0.90;99.90;;;;;;5050236;28;19924;-77
2022/12/12 06:56:18;;;;;;;;;;;-0.90;99.90;;;;;;5041345;28;20019;-77
2022/12/12 06:58:44;;;;;;;;;;;-0.90;99.90;;;;;;5045122;28;19928;-81
2022/12/12 07:01:11;;;;;;;;;;;-0.90;99.90;;;;;;5050616;28;19994;-77
2022/12/12 07:03:37;;;;;;;;;;;-0.90;99.90;;;;;;5049333;28;19928;-76
2022/12/12 07:06:02;;;;;;;;;;;-0.90;99.90;;;;;;5050888;28;20379;-78
2022/12/12 07:08:28;;;;;;;;;;;-0.90;99.90;;;;;;5034210;28;20000;-77
2022/12/12 07:10:54;;;;;;;;;;;-0.90;99.90;;;;;;5050104;28;19928;-77
2022/12/12 07:13:20;;;;;;;;;;;-0.90;99.90;;;;;;5049698;28;19931;-77
2022/12/12 07:15:46;;;;;;;;;;;-0.30;99.90;;;;;;5032251;28;19925;-78
2022/12/12 07:18:13;;;;;;;;;;;-0.90;99.90;;;;;;5016567;28;19999;-77
2022/12/12 07:20:39;;;;;;;;;;;-0.90;99.90;;;;;;5050649;28;20011;-77
2022/12/12 07:23:05;;;;;;;;;;;-0.90;99.90;;;;;;5049717;28;19925;-77
2022/12/12 07:25:30;;;;;;;;;;;-0.90;99.90;;;;;;5056667;28;20319;-76
2022/12/12 07:27:56;;;;;;;;;;;-0.90;99.90;;;;;;5033675;28;19960;-81
2022/12/12 07:30:21;;;;;;;;;;;-0.90;99.90;;;;;;5049685;28;19925;-77
2022/12/12 07:32:47;;;;;;;;;;;-0.90;99.90;;;;;;5048918;28;19936;-77
2022/12/12 07:35:12;;;;;;;;;;;-0.90;99.90;;;;;;5049878;28;19925;-76
2022/12/12 07:37:38;;;;;;;;;;;-0.90;99.90;;;;;;5034459;28;19929;-77
2022/12/12 07:40:04;;;;;;;;;;;-1.00;99.90;;;;;;5046932;28;20390;-77
2022/12/12 07:42:29;;;;;;;;;;;-0.90;99.90;;;;;;5038765;28;20306;-79
2022/12/12 07:44:55;;;;;;;;;;;-0.90;99.90;;;;;;5032862;28;19928;-77
2022/12/12 07:47:20;;;;;;;;;;;-0.40;99.90;;;;;;5020180;28;20002;-78
2022/12/12 07:49:46;;;;;;;;;;;-0.90;99.90;;;;;;5046281;28;19956;-81
2022/12/12 07:52:12;;;;;;;;;;;-0.90;99.90;;;;;;5027993;28;19977;-78
2022/12/12 07:54:37;;;;;;;;;;;-0.90;99.90;;;;;;5045640;28;20066;-77
2022/12/12 07:57:03;;;;;;;;;;;-0.90;99.90;;;;;;5030286;28;19928;-79
2022/12/12 07:59:28;;;;;;;;;;;-0.90;99.90;;;;;;5027106;28;19991;-78
2022/12/12 08:01:54;;;;;;;;;;;-0.80;99.90;;;;;;5046012;28;20874;-77
2022/12/12 08:04:19;;;;;;;;;;;-0.80;99.90;;;;;;5044870;28;19932;-79
2022/12/12 08:06:45;;;;;;;;;;;-0.80;99.90;;;;;;5030785;28;19974;-78
2022/12/12 08:09:10;;;;;;;;;;;-0.80;99.90;;;;;;5044737;28;19943;-79
2022/12/12 08:11:38;;;;;;;;;;;-0.80;99.90;;;;;;5059951;28;19994;-79
2022/12/12 08:14:05;;;;;;;;;;;-0.70;99.90;;;;;;5066033;28;19936;-79
2022/12/12 08:16:31;;;;;;;;;;;-0.70;99.90;;;;;;5042668;28;20015;-77
2022/12/12 08:18:57;;;;;;;;;;;-0.70;99.90;;;;;;5018823;28;20559;-81
2022/12/12 08:21:22;;;;;;;;;;;-0.70;99.90;;;;;;5021554;28;19929;-77
2022/12/12 08:23:48;;;;;;;;;;;-0.70;99.90;;;;;;5038846;28;19982;-78
2022/12/12 08:26:15;;;;;;;;;;;-0.70;99.90;;;;;;5020321;28;19929;-78
2022/12/12 08:28:43;;;;;;;;;;;-0.70;99.90;;;;;;5037974;28;20024;-77
2022/12/12 08:31:09;;;;;;;;;;;-0.70;99.90;;;;;;5028733;28;19929;-77
2022/12/12 08:33:35;;;;;;;;;;;0.20;99.90;;;;;;5032847;28;19936;-79
2022/12/12 08:36:09;;;;;;;;;;;-0.70;99.90;;;;;;5029062;28;19933;-79
2022/12/12 08:38:34;;;;;;;;;;;-0.60;99.90;;;;;;5005350;28;20375;-79
2022/12/12 08:41:01;;;;;;;;;;;-0.60;99.90;;;;;;5022456;28;19933;-77
2022/12/12 08:43:26;;;;;;;;;;;-0.60;99.90;;;;;;5028630;28;19940;-78
2022/12/12 08:45:57;;;;;;;;;;;-0.60;99.90;;;;;;5029154;28;19932;-81
2022/12/12 08:48:23;;;;;;;;;;;-0.60;99.90;;;;;;5014228;28;19925;-78
2022/12/12 08:50:51;;;;;;;;;;;-0.60;99.90;;;;;;5037377;28;20470;-78
2022/12/12 08:53:17;;;;;;;;;;;-0.60;99.90;;;;;;5036270;28;21119;-77
2022/12/12 08:55:44;;;;;;;;;;;-0.50;99.90;;;;;;5042993;28;20273;-80
2022/12/12 08:58:10;;;;;;;;;;;-0.60;99.90;;;;;;4987376;28;20016;-78
2022/12/12 09:00:36;;;;;;;;;;;-0.60;99.90;;;;;;5050366;28;19931;-80
2022/12/12 09:03:01;;;;;;;;;;;-0.60;99.90;;;;;;5055038;28;19928;-78
2022/12/12 09:05:27;;;;;;;;;;;-0.50;99.90;;;;;;5055709;28;20005;-80
2022/12/12 09:07:52;;;;;;;;;;;-0.50;99.90;;;;;;5040420;28;19932;-83
2022/12/12 09:10:18;;;;;;;;;;;-0.50;99.90;;;;;;5054505;28;19924;-79
2022/12/12 09:12:44;;;;;;;;;;;0.20;99.90;;;;;;5056177;28;20334;-79
2022/12/12 09:15:09;;;;;;;;;;;-0.50;99.90;;;;;;5056386;28;20665;-79
2022/12/12 09:17:35;;;;;;;;;;;-0.40;99.90;;;;;;5039785;28;20443;-78
2022/12/12 09:20:01;;;;;;;;;;;-0.50;99.90;;;;;;5052809;28;19931;-77
2022/12/12 09:22:27;;;;;;;;;;;-0.40;99.90;;;;;;5053800;28;20341;-76
2022/12/12 09:24:52;;;;;;;;;;;-0.40;99.90;;;;;;5054766;28;19932;-79
2022/12/12 09:27:18;;;;;;;;;;;-0.40;99.90;;;;;;5040288;28;20409;-82
2022/12/12 09:29:44;;;;;;;;;;;-0.40;99.90;;;;;;5053044;28;20370;-77
2022/12/12 09:32:10;;;;;;;;;;;-0.40;99.90;;;;;;5053765;28;19932;-77
2022/12/12 09:34:36;;;;;;;;;;;0.20;99.90;;;;;;5055302;28;19979;-77
2022/12/12 09:37:02;;;;;;;;;;;-0.30;99.90;;;;;;5040112;28;19938;-78
2022/12/12 09:39:27;;;;;;;;;;;-0.30;99.90;;;;;;5055667;28;19928;-77
2022/12/12 09:41:53;;;;;;;;;;;-0.20;99.90;;;;;;5058218;28;19974;-78
2022/12/12 09:44:21;;;;;;;;;;;-0.10;99.90;;;;;;5056688;28;19932;-79
2022/12/12 09:46:46;;;;;;;;;;;0.00;99.90;;;;;;5034572;28;20063;-78
2022/12/12 09:49:12;;;;;;;;;;;0.00;99.90;;;;;;5031081;28;19929;-77
2022/12/12 09:51:38;;;;;;;;;;;0.10;99.90;;;;;;5015081;28;19936;-78
2022/12/12 09:54:04;;;;;;;;;;;0.20;99.90;;;;;;5026526;28;19933;-77
2022/12/12 09:56:41;;;;;;;;;;;0.20;99.90;;;;;;5025944;28;20485;-80
2022/12/12 09:59:13;;;;;;;;;;;0.40;99.90;;;;;;5033280;28;20027;-79
2022/12/12 10:01:39;;;;;;;;;;;0.50;99.90;;;;;;5034519;28;19929;-78
2022/12/12 10:04:23;;;;;;;;;;;0.50;99.90;;;;;;5012311;28;19955;-77
2022/12/12 10:06:55;;;;;;;;;;;0.50;99.90;;;;;;5010517;28;20030;-79
2022/12/12 10:09:33;;;;;;;;;;;0.80;99.90;;;;;;5027058;28;20800;-79
2022/12/12 10:11:59;;;;;;;;;;;1.60;99.90;;;;;;5029689;28;19959;-77
2022/12/12 10:14:24;;;;;;;;;;;2.00;99.90;;;;;;5032422;28;20390;-78
2022/12/12 10:16:50;;;;;;;;;;;2.30;99.90;;;;;;5002792;28;19970;-81
2022/12/12 10:19:25;;;;;;;;;;;2.70;99.90;;;;;;5024849;28;19932;-79
2022/12/12 10:21:51;;;;;;;;;;;2.50;99.90;;;;;;5030343;28;19932;-77
2022/12/12 10:24:17;;;;;;;;;;;2.90;99.90;;;;;;5029071;28;20290;-78
2022/12/12 10:26:43;;;;;;;;;;;3.10;99.90;;;;;;5014122;28;19926;-79
2022/12/12 10:29:19;;;;;;;;;;;3.50;99.90;;;;;;5009228;28;19932;-78
2022/12/12 10:31:44;;;;;;;;;;;3.00;99.90;;;;;;5000668;28;19928;-82
2022/12/12 10:34:28;;;;;;;;;;;2.90;99.90;;;;;;5032736;28;19933;-79
2022/12/12 10:37:03;;;;;;;;;;;2.80;99.90;;;;;;5015103;28;19939;-77
2022/12/12 10:39:55;;;;;;;;;;;2.90;99.90;;;;;;5032335;28;20313;-81
2022/12/12 10:42:32;;;;;;;;;;;2.60;99.90;;;;;;5017062;28;20665;-78
2022/12/12 10:45:16;;;;;;;;;;;2.50;99.90;;;;;;5030300;28;19968;-78
2022/12/12 10:47:45;;;;;;;;;;;2.40;99.90;;;;;;5000314;28;20404;-80
2022/12/12 10:50:22;;;;;;;;;;;2.60;99.90;;;;;;5015966;28;20552;-77
2022/12/12 10:52:48;;;;;;;;;;;2.30;99.90;;;;;;5018001;28;19925;-77
2022/12/12 10:55:18;;;;;;;;;;;2.90;99.90;;;;;;5020654;28;19939;-81
2022/12/12 10:57:44;;;;;;;;;;;3.40;99.90;;;;;;4994905;28;20296;-80
2022/12/12 11:00:36;;;;;;;;;;;4.20;99.90;;;;;;5013825;28;19938;-77
2022/12/12 11:03:10;;;;;;;;;;;3.60;99.90;;;;;;5013159;28;20422;-77
2022/12/12 11:05:37;;;;;;;;;;;3.40;99.90;;;;;;5018276;28;19994;-78
2022/12/12 11:08:04;;;;;;;;;;;3.70;99.90;;;;;;5001588;28;19935;-77
2022/12/12 11:10:36;;;;;;;;;;;3.40;99.90;;;;;;5014942;28;19933;-81
2022/12/12 11:13:12;;;;;;;;;;;3.50;99.90;;;;;;5007721;28;20029;-78
2022/12/12 11:15:49;;;;;;;;;;;3.20;99.90;;;;;;5001405;28;20334;-78
2022/12/12 11:18:17;;;;;;;;;;;2.80;99.90;;;;;;4990936;28;19933;-78
2022/12/12 11:20:47;;;;;;;;;;;2.60;99.90;;;;;;5014556;28;20135;-78
2022/12/12 11:23:17;;;;;;;;;;;2.50;99.90;;;;;;5014608;28;21918;-78
2022/12/12 11:25:43;;;;;;;;;;;2.80;99.90;;;;;;5012996;28;20025;-80
2022/12/12 11:28:11;;;;;;;;;;;2.80;99.90;;;;;;4998953;28;19929;-78
2022/12/12 11:30:38;;;;;;;;;;;3.00;99.90;;;;;;5016705;28;20017;-80
2022/12/12 11:33:06;;;;;;;;;;;3.40;99.90;;;;;;4998595;28;19944;-77
2022/12/12 11:35:36;;;;;;;;;;;2.80;99.90;;;;;;5012943;28;19925;-78
2022/12/12 11:38:07;;;;;;;;;;;2.70;99.90;;;;;;4995662;28;19933;-79
2022/12/12 11:40:33;;;;;;;;;;;2.70;99.90;;;;;;5014263;28;19925;-78
2022/12/12 11:43:18;;;;;;;;;;;2.10;99.90;;;;;;5006237;28;19933;-77
2022/12/12 11:45:56;;;;;;;;;;;2.10;99.90;;;;;;5010437;28;19933;-78
2022/12/12 11:48:32;;;;;;;;;;;2.00;99.90;;;;;;5025667;28;19932;-78
2022/12/12 11:50:58;;;;;;;;;;;2.00;99.90;;;;;;5025657;28;19932;-76
2022/12/12 11:53:24;;;;;;;;;;;1.90;99.90;;;;;;5037071;28;20351;-78
2022/12/12 11:55:50;;;;;;;;;;;1.70;99.90;;;;;;5020890;28;19933;-78
2022/12/12 11:58:34;;;;;;;;;;;2.20;99.90;;;;;;5019479;28;19924;-78
2022/12/12 12:01:05;;;;;;;;;;;1.70;99.90;;;;;;5037661;28;20417;-80
2022/12/12 12:03:43;;;;;;;;;;;2.30;99.90;;;;;;5041790;28;20014;-77
2022/12/12 12:06:14;;;;;;;;;;;1.70;99.90;;;;;;5035014;28;19931;-78
2022/12/12 12:08:59;;;;;;;;;;;1.60;99.90;;;;;;5034683;28;19925;-78
2022/12/12 12:11:43;;;;;;;;;;;1.50;99.90;;;;;;5059318;28;19939;-81
2022/12/12 12:14:15;;;;;;;;;;;1.40;99.90;;;;;;5039174;28;19963;-80
2022/12/12 12:16:49;;;;;;;;;;;1.50;99.90;;;;;;5034363;28;20494;-79
2022/12/12 12:19:25;;;;;;;;;;;1.50;99.90;;;;;;5044105;28;20424;-78
2022/12/12 12:22:09;;;;;;;;;;;1.30;99.90;;;;;;5046918;28;20242;-77
2022/12/12 12:24:43;;;;;;;;;;;1.30;99.90;;;;;;5047013;28;19983;-77
2022/12/12 12:27:28;;;;;;;;;;;1.20;99.90;;;;;;5028369;28;20166;-77
2022/12/12 12:30:05;;;;;;;;;;;1.20;99.90;;;;;;5050154;28;19933;-81
2022/12/12 12:32:39;;;;;;;;;;;1.10;99.90;;;;;;5020894;28;19925;-77
2022/12/12 12:35:10;;;;;;;;;;;1.10;99.90;;;;;;5038162;28;19932;-76
2022/12/12 12:37:51;;;;;;;;;;;1.10;99.90;;;;;;5032604;28;19937;-79
2022/12/12 12:40:16;;;;;;;;;;;1.10;99.90;;;;;;5048279;28;19939;-80
2022/12/12 12:42:49;;;;;;;;;;;1.10;99.90;;;;;;5047680;28;19933;-81
2022/12/12 12:45:24;;;;;;;;;;;1.10;99.90;;;;;;5049888;28;19975;-81
2022/12/12 12:47:51;;;;;;;;;;;1.10;99.90;;;;;;5038387;28;19939;-81
2022/12/12 12:50:20;;;;;;;;;;;1.10;99.90;;;;;;5057455;28;20384;-78
2022/12/12 12:52:51;;;;;;;;;;;1.00;99.90;;;;;;5034874;28;19932;-78
2022/12/12 12:55:23;;;;;;;;;;;1.00;99.90;;;;;;5058857;28;19932;-81
2022/12/12 12:57:50;;;;;;;;;;;1.00;99.90;;;;;;5040657;28;20468;-77
2022/12/12 13:00:17;;;;;;;;;;;1.00;99.90;;;;;;5058546;28;20379;-77
2022/12/12 13:02:54;;;;;;;;;;;1.00;99.90;;;;;;5055328;28;19983;-78
2022/12/12 13:05:39;;;;;;;;;;;1.00;99.90;;;;;;5055194;28;20414;-78
2022/12/12 13:08:23;;;;;;;;;;;0.90;99.90;;;;;;5023628;28;20040;-82
2022/12/12 13:10:51;;;;;;;;;;;0.90;99.90;;;;;;5054601;28;20010;-76
2022/12/12 13:13:17;;;;;;;;;;;0.90;99.90;;;;;;5024779;28;19977;-77
2022/12/12 13:15:45;;;;;;;;;;;0.90;99.90;;;;;;5056794;28;19932;-76
2022/12/12 13:18:12;;;;;;;;;;;0.90;99.90;;;;;;5040802;28;19968;-77
2022/12/12 13:20:39;;;;;;;;;;;1.20;99.90;;;;;;5030678;28;19933;-77
2022/12/12 13:23:11;;;;;;;;;;;0.90;99.90;;;;;;5056266;28;19925;-77
2022/12/12 13:25:40;;;;;;;;;;;0.90;99.90;;;;;;5057955;28;20173;-78
2022/12/12 13:28:09;;;;;;;;;;;0.70;99.90;;;;;;5041658;28;19924;-76
2022/12/12 13:30:34;;;;;;;;;;;0.90;99.90;;;;;;5053168;28;19951;-82
2022/12/12 13:33:19;;;;;;;;;;;0.80;99.90;;;;;;5034992;28;19936;-78
2022/12/12 13:35:47;;;;;;;;;;;0.80;99.90;;;;;;5054521;28;19928;-76
2022/12/12 13:38:39;;;;;;;;;;;0.80;99.90;;;;;;5042065;28;20332;-76
2022/12/12 13:41:06;;;;;;;;;;;0.80;99.90;;;;;;5052330;28;19932;-82
2022/12/12 13:43:31;;;;;;;;;;;0.70;99.90;;;;;;5054959;28;19932;-77
2022/12/12 13:45:57;;;;;;;;;;;0.70;99.90;;;;;;5056152;28;20145;-80
2022/12/12 13:48:26;;;;;;;;;;;0.70;99.90;;;;;;5010274;28;19933;-78
2022/12/12 13:51:10;;;;;;;;;;;0.70;99.90;;;;;;5030858;28;19978;-76
2022/12/12 13:53:36;;;;;;;;;;;0.80;99.90;;;;;;5026223;28;19991;-76
2022/12/12 13:56:37;;;;;;;;;;;0.70;99.90;;;;;;5035721;28;20422;-81
2022/12/12 13:59:03;;;;;;;;;;;0.70;99.90;;;;;;4981082;28;19933;-76
2022/12/12 14:01:31;;;;;;;;;;;0.70;99.90;;;;;;5016573;28;19933;-79
2022/12/12 14:03:57;;;;;;;;;;;0.70;99.90;;;;;;5011628;28;19944;-78
2022/12/12 14:06:26;;;;;;;;;;;0.60;99.90;;;;;;5020537;28;20313;-78
2022/12/12 14:08:52;;;;;;;;;;;0.60;99.90;;;;;;5029461;28;19958;-78
2022/12/12 14:11:29;;;;;;;;;;;0.60;99.90;;;;;;5014056;28;20397;-82
2022/12/12 14:14:16;;;;;;;;;;;0.60;99.90;;;;;;5013587;28;19939;-79
2022/12/12 14:16:42;;;;;;;;;;;0.60;99.90;;;;;;5018158;28;20355;-78
2022/12/12 14:19:19;;;;;;;;;;;0.60;99.90;;;;;;5032248;28;20315;-77
2022/12/12 14:21:46;;;;;;;;;;;0.60;99.90;;;;;;5029038;28;19934;-76
2022/12/12 14:24:30;;;;;;;;;;;0.60;99.90;;;;;;5027564;28;20302;-77
2022/12/12 14:26:55;;;;;;;;;;;0.50;99.90;;;;;;5013785;28;19940;-76
2022/12/12 14:29:22;;;;;;;;;;;0.50;99.90;;;;;;5026646;28;20310;-76
2022/12/12 14:31:47;;;;;;;;;;;0.80;99.90;;;;;;5029282;28;19925;-77
2022/12/12 14:34:16;;;;;;;;;;;0.50;99.90;;;;;;5027904;28;19986;-78
2022/12/12 14:36:41;;;;;;;;;;;0.50;99.90;;;;;;5011705;28;20895;-80
2022/12/12 14:39:26;;;;;;;;;;;0.50;99.90;;;;;;5018198;28;19940;-81
2022/12/12 14:41:54;;;;;;;;;;;0.50;99.90;;;;;;5025981;28;20145;-77
2022/12/12 14:44:23;;;;;;;;;;;0.40;99.90;;;;;;5029128;28;19933;-78
2022/12/12 14:46:49;;;;;;;;;;;0.30;99.90;;;;;;5007659;28;19964;-77